Weather reports worldwide

Advertisment
Zugspitze, Germany (10961): temperature & dewpoint: 20.09.2020 13:00:00 - 26.09.2020 13:00:00 (CEST)Zugspitze, Germany (10961): wind speed & gusts: 20.09.2020 13:00:00 - 26.09.2020 13:00:00 (CEST)Zugspitze, Germany (10961): wind direction: 20.09.2020 13:00:00 - 26.09.2020 13:00:00 (CEST)Zugspitze, Germany (10961): visibility: 20.09.2020 13:00:00 - 26.09.2020 13:00:00 (CEST)Zugspitze, Germany (10961): sunshine duration: 20.09.2020 13:00:00 - 26.09.2020 13:00:00 (CEST)
Date & Time tt [°C] td [°C] ff [km/h] ff [kn] fx [km/h] fx [kn] dd vv [km] sd [min]
26.09.2020 13:00:00 -10,1 -11,4 35 19 80 43 WNW 0,1 0
26.09.2020 12:00:00 -10,1 -11,5 34 18 69 37 WNW 0,1 0
26.09.2020 11:00:00 -10,5 -12,0 32 17 67 36 WNW - 0
26.09.2020 10:00:00 -9,5 -10,8 32 17 63 34 NW - 0
26.09.2020 09:00:00 -9,2 -10,5 33 18 60 33 NNW - 0
26.09.2020 08:00:00 -8,9 -10,1 27 15 45 24 NNW - 0
26.09.2020 07:00:00 -8,6 -9,8 22 12 47 25 NNW - 0
26.09.2020 06:00:00 -8,7 -9,8 24 13 54 29 NNW - 0
26.09.2020 05:00:00 -8,4 -9,4 20 11 46 25 NNW - 0
26.09.2020 04:00:00 -8,5 -9,6 22 12 46 25 NNW - 0
26.09.2020 03:00:00 -8,3 -9,4 20 11 40 21 NNW - 0
26.09.2020 02:00:00 -8,5 -9,7 20 11 55 30 N - 0
26.09.2020 01:00:00 -8,6 -9,7 18 10 43 23 NNW - 0
26.09.2020 00:00:00 -8,5 -9,6 17 9 39 21 NNW 0,4 0
25.09.2020 23:00:00 -8,6 -9,8 19 11 45 24 NNW 0,1 0
25.09.2020 22:00:00 -8,1 -9,2 19 10 37 20 N 0,1 0
25.09.2020 21:00:00 -8,7 -10,0 21 12 36 19 NNW 0,1 0
25.09.2020 20:00:00 -9,2 -10,5 17 9 37 20 N 0,1 0
25.09.2020 19:00:00 -8,6 -9,9 19 11 38 21 NNW 0,1 0
25.09.2020 18:00:00 -8,8 -10,1 17 9 40 21 NNW 0,1 0
25.09.2020 17:00:00 -9,3 -10,6 20 11 42 23 NNW 0,1 0
25.09.2020 16:00:00 -9,1 -10,5 22 12 36 20 NNW 0,1 0
25.09.2020 15:00:00 -8,3 -9,5 18 10 29 16 NW 0,1 0
25.09.2020 14:00:00 -7,7 -8,7 12 7 37 20 NNW 0,2 0
25.09.2020 13:00:00 -7,9 -9,1 27 15 45 24 NNW 0,1 0
25.09.2020 12:00:00 -6,5 -7,8 21 11 31 17 NNW 0,2 0
25.09.2020 11:00:00 -5,6 -6,4 9 5 19 10 NNW 0,2 0
25.09.2020 10:00:00 -4,0 -4,5 8 4 24 13 N 0,3 0
25.09.2020 09:00:00 -2,8 -3,1 15 8 32 18 W 0,1 0
25.09.2020 08:00:00 -3,0 -3,5 26 14 38 21 WSW 0,2 0
25.09.2020 07:00:00 -2,4 -2,8 13 7 29 16 WSW 0,3 0
25.09.2020 06:00:00 -2,5 -2,8 16 9 34 18 WSW 0,2 0
25.09.2020 05:00:00 -1,8 -1,8 8 4 26 14 W 0,2 0
25.09.2020 04:00:00 -2,0 -2,3 16 9 24 13 W 0,1 0
25.09.2020 03:00:00 -0,8 -1,0 12 7 26 14 S 0,4 0
25.09.2020 02:00:00 0,0 -0,1 9 5 20 11 S 0,2 0
25.09.2020 01:00:00 0,3 0,3 14 8 27 15 SE 0,2 0
25.09.2020 00:00:00 1,3 1,3 18 10 37 20 ESE - 0
24.09.2020 23:00:00 1,4 1,2 29 16 69 38 SE - 0
24.09.2020 22:00:00 1,4 0,8 45 24 74 40 SSE 0,8 0
24.09.2020 21:00:00 1,9 1,8 35 19 54 29 SSE 0,1 0
24.09.2020 20:00:00 2,3 2,3 30 16 39 21 SE - 0
24.09.2020 19:00:00 2,6 2,5 25 14 37 20 ESE - 2
24.09.2020 18:00:00 3,0 2,9 25 13 36 19 SE - 1
24.09.2020 17:00:00 3,3 3,1 26 14 41 22 SE - 13
24.09.2020 16:00:00 2,9 2,3 22 12 39 21 SE 0,1 1
24.09.2020 15:00:00 2,8 1,6 29 16 41 22 S 0,1 9
24.09.2020 14:00:00 2,5 1,8 24 13 35 19 SE 0,1 26
24.09.2020 13:00:00 2,5 1,3 19 11 34 18 SE 0,2 32
24.09.2020 12:00:00 2,1 0,8 26 14 35 19 SSE 0,1 41
24.09.2020 11:00:00 1,8 0,7 19 11 28 15 SE 0,1 40
24.09.2020 10:00:00 2,0 0,1 23 12 31 17 S 72 34
24.09.2020 09:00:00 1,4 -0,1 21 12 36 19 SSW 61 0
24.09.2020 08:00:00 1,1 -0,1 20 11 - - SW 55 17
24.09.2020 07:00:00 0,8 -0,3 24 13 36 20 SSW 62 0
24.09.2020 06:00:00 0,9 -1,5 25 14 39 21 WSW 60 0
24.09.2020 05:00:00 0,2 -0,7 21 11 41 22 WSW 63 0
24.09.2020 04:00:00 0,4 -0,4 20 11 49 26 W 60 0
24.09.2020 03:00:00 0,3 -0,5 26 14 47 25 WSW 60 0
24.09.2020 02:00:00 0,3 -0,3 26 14 41 22 WSW 60 0
24.09.2020 01:00:00 0,6 0,5 25 13 38 21 WSW 18 0
24.09.2020 00:00:00 1,0 1,0 19 10 31 17 SW 23 0
23.09.2020 23:00:00 0,8 0,8 18 10 29 16 WSW 1,6 0
23.09.2020 22:00:00 0,7 0,7 12 7 29 16 NW 0,9 0
23.09.2020 21:00:00 1,3 1,3 16 9 29 16 WSW 0,1 0
23.09.2020 20:00:00 1,1 1,1 17 9 26 14 WSW 0,1 0
23.09.2020 19:00:00 1,4 1,4 11 6 26 14 W 0,1 0
23.09.2020 18:00:00 2,3 2,3 9 5 22 12 NW - 0
23.09.2020 17:00:00 1,6 1,6 8 5 21 11 WSW 0,1 0
23.09.2020 16:00:00 2,3 2,3 8 5 27 15 W - 3
23.09.2020 15:00:00 1,5 1,5 7 4 16 9 WNW 0,1 0
23.09.2020 14:00:00 1,1 1,1 8 4 16 9 NNW 0,1 0
23.09.2020 13:00:00 1,6 1,6 8 5 20 11 NNW - 0
23.09.2020 12:00:00 1,0 1,0 9 5 26 14 NNW 0,1 0
23.09.2020 11:00:00 0,8 0,7 16 9 25 13 NNW - 0
23.09.2020 10:00:00 1,1 1,1 11 6 23 13 WNW - 0
23.09.2020 09:00:00 1,8 1,8 7 4 16 9 NW - 0
23.09.2020 08:00:00 1,9 1,9 5 3 17 9 NW - 0
23.09.2020 07:00:00 1,7 1,7 9 5 23 12 NW - 0
23.09.2020 06:00:00 1,8 1,8 6 3 16 8 WSW - 0
23.09.2020 05:00:00 1,7 1,5 4 2 16 9 NW 0,1 0
23.09.2020 04:00:00 1,8 1,5 8 5 16 9 W 0,1 0
23.09.2020 03:00:00 2,2 1,9 3 2 13 7 WSW 0,4 0
23.09.2020 02:00:00 2,2 1,7 3 2 18 10 W 9 0
23.09.2020 01:00:00 2,4 1,1 10 5 20 11 SSW 56 0
23.09.2020 00:00:00 2,4 0,9 12 7 23 12 S 48 0
22.09.2020 23:00:00 2,4 1,9 16 8 20 11 SSE 24 0
22.09.2020 22:00:00 2,4 2,1 11 6 16 8 SE 0,1 0
22.09.2020 21:00:00 2,9 2,7 11 6 23 12 ESE - 0
22.09.2020 20:00:00 3,3 3,3 13 7 24 13 ESE - 0
22.09.2020 19:00:00 3,2 2,8 14 8 18 10 ESE 0,1 0
22.09.2020 18:00:00 3,7 2,6 14 7 22 12 SE 0,1 0
22.09.2020 17:00:00 4,0 3,1 13 7 23 12 SE 0,2 3
22.09.2020 16:00:00 4,3 2,8 17 9 23 12 SE 0,2 10
22.09.2020 15:00:00 3,7 3,2 11 6 22 12 SE 0,1 0
22.09.2020 14:00:00 4,2 3,1 16 8 22 12 ESE 0,1 18
22.09.2020 13:00:00 4,8 2,7 14 8 24 13 ESE 0,1 18
22.09.2020 12:00:00 3,9 2,5 14 7 24 13 ESE 0,3 10
22.09.2020 11:00:00 4,0 2,7 13 7 21 11 ESE 1,1 13
22.09.2020 10:00:00 4,0 1,9 9 5 19 10 SE 18 48
22.09.2020 09:00:00 4,2 1,4 10 6 15 8 S 44 23
22.09.2020 08:00:00 2,9 0,9 11 6 18 10 S 50 4
22.09.2020 07:00:00 2,5 1,0 11 6 18 10 S 43 0
22.09.2020 06:00:00 2,5 0,7 13 7 18 10 SW 50 0
22.09.2020 05:00:00 2,6 0,9 12 7 20 11 S 41 0
22.09.2020 04:00:00 2,7 0,8 13 7 25 14 WSW 50 0
22.09.2020 03:00:00 2,6 1,0 13 7 30 16 WSW 46 0
22.09.2020 02:00:00 2,9 0,9 24 13 31 17 SW 54 0
22.09.2020 01:00:00 3,0 0,8 24 13 31 17 SW 52 0
22.09.2020 00:00:00 2,8 1,5 16 9 31 17 SW 44 0
21.09.2020 23:00:00 2,7 1,5 16 9 23 12 SSW 53 0
21.09.2020 22:00:00 2,7 2,5 19 10 28 15 SE 0,1 0
21.09.2020 21:00:00 3,2 2,5 9 5 14 8 ESE 10 0
21.09.2020 20:00:00 3,7 3,2 8 4 11 6 ESE 0,1 0
21.09.2020 19:00:00 4,0 3,3 4 2 12 7 SE 0,9 0
21.09.2020 18:00:00 4,8 3,2 5 3 24 13 S 44 0
21.09.2020 17:00:00 5,8 4,0 6 3 21 11 SE 0,1 11
21.09.2020 16:00:00 5,2 3,7 12 7 20 11 SE 3,9 13
21.09.2020 15:00:00 5,6 2,9 14 7 22 12 SSE 22 13
21.09.2020 14:00:00 4,9 3,6 14 7 25 14 SE 0,3 6
21.09.2020 13:00:00 5,1 3,5 18 10 29 16 ESE 0,1 32
21.09.2020 12:00:00 4,4 3,0 21 11 27 14 ESE 0,1 30
21.09.2020 11:00:00 4,3 2,4 14 7 22 12 ESE 4,6 46
21.09.2020 10:00:00 4,3 2,5 15 8 22 12 ESE 0,5 51
21.09.2020 09:00:00 4,4 2,2 9 5 13 7 E 23 31
21.09.2020 08:00:00 3,5 1,7 7 4 9 5 NE 26 0
21.09.2020 07:00:00 3,5 2,1 0 0 5 3 N 32 0
21.09.2020 06:00:00 3,6 1,9 3 2 6 3 N 39 0
21.09.2020 05:00:00 3,5 1,5 4 2 11 6 SSE 42 0
21.09.2020 04:00:00 3,4 1,7 7 4 14 8 SSE 39 0
21.09.2020 03:00:00 3,7 2,0 10 5 13 7 SSE 43 0
21.09.2020 02:00:00 4,1 1,9 6 4 13 7 S 43 0
21.09.2020 01:00:00 4,7 2,2 4 2 16 9 SSE 53 0
21.09.2020 00:00:00 4,2 1,9 11 6 13 7 ESE 49 0
20.09.2020 23:00:00 4,0 1,8 9 5 14 7 ESE 45 0
20.09.2020 22:00:00 3,9 2,0 8 4 26 14 SSE 40 0
20.09.2020 21:00:00 4,1 3,9 13 7 19 10 ESE 0,1 0
20.09.2020 20:00:00 4,1 3,9 9 5 16 9 NNE 0,1 0
20.09.2020 19:00:00 4,9 4,8 11 6 22 12 ESE 0,1 0
20.09.2020 18:00:00 5,2 4,8 10 5 18 10 SE 0,1 0
20.09.2020 17:00:00 5,8 4,9 10 5 16 9 ESE 0,1 0
20.09.2020 16:00:00 6,1 4,7 5 3 14 7 SE 12 0
20.09.2020 15:00:00 6,6 5,1 9 5 16 9 ESE 24 13
20.09.2020 14:00:00 6,5 3,8 11 6 20 11 SE 37 31
20.09.2020 13:00:00 6,7 3,6 14 8 21 12 SE 30 58

tt = temperature
td = dewpoint
ff = wind speed
fx = gusts
dd = wind direction
vv = visibility
sd = sunshine duration

Next stations